createdAt,value
2022-09-13T00:01:14.781Z,11.39
2022-09-13T00:03:47.348Z,11.38
2022-09-13T00:06:21.592Z,11.35
2022-09-13T00:08:55.008Z,11.34
2022-09-13T00:11:29.219Z,11.32
2022-09-13T00:14:01.808Z,11.31
2022-09-13T00:16:33.815Z,11.30
2022-09-13T00:19:06.603Z,11.31
2022-09-13T00:21:38.491Z,11.29
2022-09-13T00:24:11.418Z,11.28
2022-09-13T00:26:43.239Z,11.26
2022-09-13T00:29:15.207Z,11.24
2022-09-13T00:31:47.156Z,11.23
2022-09-13T00:34:19.338Z,11.20
2022-09-13T00:36:51.199Z,11.19
2022-09-13T00:39:23.153Z,11.17
2022-09-13T00:41:55.125Z,11.14
2022-09-13T00:44:55.250Z,11.13
2022-09-13T00:47:33.463Z,11.10
2022-09-13T00:50:12.883Z,11.08
2022-09-13T00:52:48.105Z,11.05
2022-09-13T00:55:25.582Z,11.02
2022-09-13T00:58:03.005Z,10.99
2022-09-13T01:00:34.870Z,10.96
2022-09-13T01:03:12.013Z,10.94
2022-09-13T01:05:48.689Z,10.92
2022-09-13T01:08:23.185Z,10.87
2022-09-13T01:10:58.290Z,10.83
2022-09-13T01:13:32.958Z,10.81
2022-09-13T01:16:05.106Z,10.76
2022-09-13T01:18:37.348Z,10.71
2022-09-13T01:21:54.092Z,10.64
2022-09-13T01:24:55.411Z,10.57
2022-09-13T01:27:42.241Z,10.53
2022-09-13T01:30:19.141Z,10.48
2022-09-13T01:33:08.058Z,10.45
2022-09-13T01:35:55.998Z,10.43
2022-09-13T01:38:46.058Z,10.39
2022-09-13T01:41:36.173Z,10.37
2022-09-13T01:44:16.944Z,10.34
2022-09-13T01:46:53.313Z,10.30
2022-09-13T01:49:34.236Z,10.28
2022-09-13T01:52:12.972Z,10.23
2022-09-13T01:54:55.242Z,10.19
2022-09-13T01:57:33.615Z,10.16
2022-09-13T02:00:10.724Z,10.13
2022-09-13T02:02:50.948Z,10.11
2022-09-13T02:05:30.106Z,10.08
2022-09-13T02:08:06.997Z,10.06
2022-09-13T02:10:41.035Z,10.03
2022-09-13T02:13:19.419Z,9.98
2022-09-13T02:15:57.325Z,9.96
2022-09-13T02:18:36.122Z,9.94
2022-09-13T02:21:11.925Z,9.92
2022-09-13T02:23:48.643Z,9.89
2022-09-13T02:26:22.590Z,9.85
2022-09-13T02:28:57.086Z,9.83
2022-09-13T02:31:35.248Z,9.79
2022-09-13T02:34:12.493Z,9.75
2022-09-13T02:36:47.519Z,9.71
2022-09-13T02:39:23.644Z,9.68
2022-09-13T02:42:01.649Z,9.67
2022-09-13T02:44:37.930Z,9.64
2022-09-13T02:47:25.514Z,9.61
2022-09-13T02:50:07.144Z,9.59
2022-09-13T02:52:51.423Z,9.56
2022-09-13T02:55:29.512Z,9.49
2022-09-13T02:58:10.863Z,9.42
2022-09-13T03:00:43.219Z,9.34
2022-09-13T03:03:17.279Z,9.28
2022-09-13T03:05:49.395Z,9.21
2022-09-13T03:08:22.850Z,9.15
2022-09-13T03:11:03.388Z,9.11
2022-09-13T03:13:54.915Z,9.05
2022-09-13T03:16:43.012Z,8.99
2022-09-13T03:19:31.362Z,8.94
2022-09-13T03:22:19.041Z,8.90
2022-09-13T03:25:00.076Z,8.86
2022-09-13T03:27:36.689Z,8.82
2022-09-13T03:30:10.447Z,8.79
2022-09-13T03:32:51.917Z,8.76
2022-09-13T03:35:33.773Z,8.71
2022-09-13T03:38:10.826Z,8.69
2022-09-13T03:40:50.266Z,8.67
2022-09-13T03:43:26.195Z,8.68
2022-09-13T03:46:03.957Z,8.66
2022-09-13T03:48:38.980Z,8.65
2022-09-13T03:51:12.465Z,8.64
2022-09-13T03:53:48.684Z,8.61
2022-09-13T03:56:21.946Z,8.59
2022-09-13T03:58:53.955Z,8.57
2022-09-13T04:01:27.071Z,8.57
2022-09-13T04:03:59.211Z,8.59
2022-09-13T04:06:31.112Z,8.61
2022-09-13T04:09:03.055Z,8.61
2022-09-13T04:11:34.905Z,8.62
2022-09-13T04:14:06.712Z,8.61
2022-09-13T04:16:38.691Z,8.62
2022-09-13T04:19:10.726Z,8.62
2022-09-13T04:21:42.557Z,8.64
2022-09-13T04:24:15.225Z,8.68
2022-09-13T04:26:49.921Z,8.74
2022-09-13T04:29:22.906Z,8.80
2022-09-13T04:31:56.456Z,8.90
2022-09-13T04:34:28.777Z,9.00
2022-09-13T04:37:00.741Z,9.16
2022-09-13T04:39:32.596Z,9.29
2022-09-13T04:42:04.881Z,9.43
2022-09-13T04:44:37.180Z,9.57
2022-09-13T04:47:09.822Z,9.75
2022-09-13T04:49:42.018Z,9.94
2022-09-13T04:52:14.012Z,10.12
2022-09-13T04:54:47.779Z,10.35
2022-09-13T04:57:19.619Z,10.64
2022-09-13T04:59:51.360Z,10.95
2022-09-13T05:02:23.370Z,11.43
2022-09-13T05:04:55.338Z,11.95
2022-09-13T05:07:27.195Z,12.48
2022-09-13T05:09:59.105Z,13.00
2022-09-13T05:12:31.221Z,13.60
2022-09-13T05:15:03.081Z,14.20
2022-09-13T05:17:34.961Z,14.74
2022-09-13T05:20:08.632Z,15.38
2022-09-13T05:22:40.449Z,15.95
2022-09-13T05:25:12.714Z,16.43
2022-09-13T05:27:46.168Z,16.91
2022-09-13T05:30:18.033Z,17.40
2022-09-13T05:32:49.908Z,17.85
2022-09-13T05:35:22.355Z,18.51
2022-09-13T05:37:54.225Z,19.32
2022-09-13T05:40:26.516Z,20.09
2022-09-13T05:42:58.605Z,20.87
2022-09-13T05:45:30.711Z,21.69
2022-09-13T05:48:02.961Z,22.64
2022-09-13T05:50:57.644Z,23.63
2022-09-13T05:53:30.125Z,24.67
2022-09-13T05:56:02.152Z,25.51
2022-09-13T05:58:35.202Z,26.29
2022-09-13T06:01:07.260Z,26.93
2022-09-13T06:03:39.477Z,27.43
2022-09-13T06:06:12.936Z,27.86
2022-09-13T06:08:45.257Z,28.28
2022-09-13T06:11:18.007Z,28.73
2022-09-13T06:13:50.032Z,29.21
2022-09-13T06:16:23.086Z,29.59
2022-09-13T06:18:55.112Z,29.97
2022-09-13T06:21:29.283Z,30.36
2022-09-13T06:24:01.853Z,30.85
2022-09-13T06:26:33.780Z,31.01
2022-09-13T06:29:05.773Z,31.10
2022-09-13T06:31:39.209Z,31.16
2022-09-13T06:34:15.656Z,31.18
2022-09-13T06:36:47.703Z,31.10
2022-09-13T06:39:19.492Z,31.07
2022-09-13T06:41:51.377Z,31.09
2022-09-13T06:44:26.067Z,31.11
2022-09-13T06:46:57.991Z,31.28
2022-09-13T06:49:31.567Z,31.26
2022-09-13T06:52:03.947Z,31.43
2022-09-13T06:54:35.746Z,31.69
2022-09-13T06:57:08.133Z,31.74
2022-09-13T06:59:39.931Z,31.84
2022-09-13T07:02:13.495Z,31.67
2022-09-13T07:04:45.529Z,31.48
2022-09-13T07:07:17.399Z,31.48
2022-09-13T07:09:51.714Z,31.49
2022-09-13T07:12:23.800Z,31.46
2022-09-13T07:14:56.026Z,31.28
2022-09-13T07:17:31.476Z,31.28
2022-09-13T07:20:06.076Z,31.22
2022-09-13T07:22:38.067Z,31.15
2022-09-13T07:25:11.370Z,31.29
2022-09-13T07:27:43.312Z,31.42
2022-09-13T07:30:15.598Z,31.61
2022-09-13T07:32:47.504Z,31.65
2022-09-13T07:35:19.517Z,31.68
2022-09-13T07:37:53.136Z,32.00
2022-09-13T07:40:25.488Z,32.29
2022-09-13T07:42:57.694Z,32.52
2022-09-13T07:45:29.740Z,32.62
2022-09-13T07:48:02.386Z,32.83
2022-09-13T07:50:34.474Z,32.81
2022-09-13T07:53:06.386Z,32.83
2022-09-13T07:55:38.289Z,33.06
2022-09-13T07:58:10.340Z,33.16
2022-09-13T08:00:42.385Z,33.23
2022-09-13T08:03:14.697Z,33.33
2022-09-13T08:05:46.769Z,33.60
2022-09-13T08:08:20.204Z,33.83
2022-09-13T08:10:52.266Z,33.90
2022-09-13T08:13:24.806Z,33.66
2022-09-13T08:15:57.382Z,33.30
2022-09-13T08:18:29.469Z,32.93
2022-09-13T08:21:02.592Z,32.74
2022-09-13T08:23:34.518Z,32.32
2022-09-13T08:26:08.088Z,32.06
2022-09-13T08:28:41.305Z,31.53
2022-09-13T08:31:17.115Z,31.11
2022-09-13T08:33:50.296Z,30.84
2022-09-13T08:36:24.130Z,30.78
2022-09-13T08:38:59.359Z,30.95
2022-09-13T08:41:57.236Z,30.80
2022-09-13T08:44:32.597Z,30.64
2022-09-13T08:47:28.365Z,30.59
2022-09-13T08:50:07.595Z,29.98
2022-09-13T08:52:48.152Z,29.57
2022-09-13T08:55:29.911Z,29.52
2022-09-13T08:58:15.889Z,29.52
2022-09-13T18:07:32.969Z,16.29
2022-09-13T18:10:16.077Z,16.28
2022-09-13T18:12:57.331Z,16.27
2022-09-13T18:15:29.399Z,16.27
2022-09-13T18:18:01.252Z,16.26
2022-09-13T18:20:35.330Z,16.26
2022-09-13T18:23:10.813Z,16.27
2022-09-13T18:25:42.720Z,16.27
2022-09-13T18:28:15.451Z,16.28
2022-09-13T18:30:56.245Z,16.28
2022-09-13T18:33:29.942Z,16.26
2022-09-13T18:36:04.698Z,16.26
2022-09-13T18:38:38.490Z,16.25
2022-09-13T18:41:12.801Z,16.23
2022-09-13T18:43:55.119Z,16.21
2022-09-13T18:46:31.861Z,16.19
2022-09-13T18:49:05.043Z,16.18
2022-09-13T18:51:38.564Z,16.16
2022-09-13T18:54:12.804Z,16.15
2022-09-13T18:56:44.850Z,16.14
2022-09-13T18:59:16.882Z,16.12
2022-09-13T19:01:48.938Z,16.11
2022-09-13T19:04:22.039Z,16.10
2022-09-13T19:06:56.143Z,16.09
2022-09-13T19:09:28.069Z,16.08
2022-09-13T19:11:59.962Z,16.07
2022-09-13T19:14:32.624Z,16.06
2022-09-13T19:17:04.805Z,16.06
2022-09-13T19:19:36.686Z,16.06
2022-09-13T19:22:08.584Z,16.05
2022-09-13T19:24:40.722Z,16.04
2022-09-13T19:27:13.409Z,16.03
2022-09-13T19:29:45.275Z,16.03
2022-09-13T19:32:17.100Z,16.02
2022-09-13T19:34:48.996Z,16.00
2022-09-13T19:37:20.894Z,16.00
2022-09-13T19:39:53.860Z,15.99
2022-09-13T19:42:25.785Z,16.00
2022-09-13T19:44:57.577Z,15.99
2022-09-13T19:48:12.995Z,15.99
2022-09-13T19:50:21.556Z,15.97
2022-09-13T19:52:53.712Z,15.96
2022-09-13T19:55:25.548Z,15.95
2022-09-13T19:57:57.933Z,15.93
2022-09-13T20:00:30.295Z,15.91
2022-09-13T20:03:03.573Z,15.90
2022-09-13T20:05:37.364Z,15.89
2022-09-13T20:08:09.326Z,15.88
2022-09-13T20:10:41.389Z,15.87
2022-09-13T20:13:13.236Z,15.87
2022-09-13T20:15:45.508Z,15.86
2022-09-13T20:18:17.450Z,15.84
2022-09-13T20:20:50.287Z,15.86
2022-09-13T20:23:23.675Z,15.86
2022-09-13T20:25:55.530Z,15.87
2022-09-13T20:28:27.825Z,15.87
2022-09-13T20:31:01.933Z,15.89
2022-09-13T20:33:35.826Z,15.91
2022-09-13T20:36:09.588Z,15.93
2022-09-13T20:38:42.189Z,15.96
2022-09-13T20:41:15.841Z,15.98
2022-09-13T20:43:49.376Z,16.00
2022-09-13T20:46:22.714Z,16.03
2022-09-13T20:48:54.545Z,16.05
2022-09-13T20:51:30.463Z,16.06
2022-09-13T20:54:05.121Z,16.08
2022-09-13T20:56:36.978Z,16.09
2022-09-13T20:59:08.871Z,16.11
2022-09-13T21:01:41.603Z,16.12
2022-09-13T21:04:13.672Z,16.12
2022-09-13T21:06:59.452Z,16.14
2022-09-13T21:09:32.926Z,16.13
2022-09-13T21:12:07.389Z,16.12
2022-09-13T21:14:39.285Z,16.14
2022-09-13T21:17:11.605Z,16.14
2022-09-13T21:19:43.582Z,16.14
2022-09-13T21:22:15.617Z,16.14
2022-09-13T21:24:47.881Z,16.14
2022-09-13T21:27:20.021Z,16.14
2022-09-13T21:29:51.892Z,16.14
2022-09-13T21:32:23.691Z,16.15
2022-09-13T21:34:55.791Z,16.14
2022-09-13T21:37:27.969Z,16.14
2022-09-13T21:39:59.769Z,16.13
2022-09-13T21:42:32.077Z,16.10
2022-09-13T21:45:04.181Z,16.08
2022-09-13T21:47:36.061Z,16.06
2022-09-13T21:50:09.664Z,16.00
2022-09-13T21:52:41.467Z,15.96
2022-09-13T21:55:13.670Z,15.93
2022-09-13T21:57:46.905Z,15.90
2022-09-13T22:00:19.669Z,15.88
2022-09-13T22:02:51.742Z,15.85
2022-09-13T22:05:23.695Z,15.83
2022-09-13T22:07:55.497Z,15.82
2022-09-13T22:10:27.461Z,15.80
2022-09-13T22:12:59.928Z,15.76
2022-09-13T22:15:32.332Z,15.75
2022-09-13T22:18:04.813Z,15.74
2022-09-13T22:20:38.989Z,15.72
2022-09-13T22:23:11.115Z,15.70
2022-09-13T22:25:44.657Z,15.70
2022-09-13T22:28:16.451Z,15.68
2022-09-13T22:30:48.374Z,15.66
2022-09-13T22:33:20.252Z,15.64
2022-09-13T22:36:03.213Z,15.61
2022-09-13T22:38:35.987Z,15.60
2022-09-13T22:41:11.393Z,15.58
2022-09-13T22:43:44.165Z,15.56
2022-09-13T22:46:19.615Z,15.54
2022-09-13T22:48:51.735Z,15.53
2022-09-13T22:51:24.475Z,15.53
2022-09-13T22:53:57.040Z,15.51
2022-09-13T22:56:30.812Z,15.50
2022-09-13T22:59:06.051Z,15.49
2022-09-13T23:01:38.366Z,15.47
2022-09-13T23:04:10.802Z,15.46
2022-09-13T23:06:44.318Z,15.46
2022-09-13T23:09:19.247Z,15.46
2022-09-13T23:11:51.616Z,15.44
2022-09-13T23:14:23.517Z,15.45
2022-09-13T23:16:55.479Z,15.47
2022-09-13T23:19:28.294Z,15.47
2022-09-13T23:22:00.113Z,15.46
2022-09-13T23:24:31.962Z,15.44
2022-09-13T23:27:03.923Z,15.42
2022-09-13T23:29:35.737Z,15.41
2022-09-13T23:32:08.277Z,15.39
2022-09-13T23:34:40.209Z,15.39
2022-09-13T23:37:12.055Z,15.38
2022-09-13T23:39:43.993Z,15.36
2022-09-13T23:42:15.901Z,15.35
2022-09-13T23:44:48.016Z,15.33
2022-09-13T23:47:20.134Z,15.31
2022-09-13T23:49:52.097Z,15.25
2022-09-13T23:52:23.871Z,15.20
2022-09-13T23:54:57.199Z,15.17
2022-09-13T23:57:29.041Z,15.13
